createdAt,value
2022-09-06T00:09:23.519Z,20.3
2022-09-06T00:23:53.811Z,20.4
2022-09-06T00:38:18.921Z,20.8
2022-09-06T00:52:47.394Z,20.1
2022-09-06T01:07:14.061Z,20.9
2022-09-06T01:21:42.033Z,20.1
2022-09-06T01:36:09.016Z,20
2022-09-06T01:50:38.222Z,20.7
2022-09-06T02:05:12.037Z,20.8
2022-09-06T02:19:39.463Z,20.5
2022-09-06T02:34:02.019Z,20.8
2022-09-06T02:48:31.144Z,20.8
2022-09-06T03:03:01.044Z,20.6
2022-09-06T03:17:28.601Z,20.2
2022-09-06T03:32:01.149Z,20.5
2022-09-06T03:46:30.115Z,19.1
2022-09-06T04:00:54.852Z,19.7
2022-09-06T04:15:23.939Z,19.3
2022-09-06T04:29:52.301Z,19.1
2022-09-06T04:44:19.759Z,18.6
2022-09-06T04:58:49.207Z,19
2022-09-06T05:13:23.083Z,18.3
2022-09-06T05:27:52.549Z,18.8
2022-09-06T05:42:19.227Z,18.8
2022-09-06T05:56:45.298Z,18.2
2022-09-06T06:11:17.052Z,18.7
2022-09-06T06:25:43.450Z,19
2022-09-06T06:40:12.724Z,19.4
2022-09-06T06:54:42.010Z,19.5
2022-09-06T07:09:11.705Z,20
2022-09-06T07:24:13.052Z,21.1
2022-09-06T07:38:41.646Z,25.6
2022-09-06T07:53:10.131Z,24.8
2022-09-06T08:23:14.161Z,31.1
2022-09-06T08:37:36.803Z,32
2022-09-06T08:52:11.294Z,31.2
2022-09-06T09:06:43.777Z,31.6
2022-09-06T09:21:08.422Z,31.7
2022-09-06T09:35:35.684Z,31.8
2022-09-06T09:49:55.152Z,30.6
2022-09-06T10:19:03.492Z,30.6
2022-09-06T10:33:31.007Z,30.4
2022-09-06T10:48:00.288Z,31.4
2022-09-06T11:02:27.016Z,31
2022-09-06T11:16:56.256Z,31
2022-09-06T11:46:27.552Z,31.4
2022-09-06T12:00:55.972Z,31.6
2022-09-06T12:15:23.699Z,31.7
2022-09-06T12:29:50.885Z,32.2
2022-09-06T12:44:18.886Z,32
2022-09-06T12:58:47.887Z,32
2022-09-06T13:13:15.680Z,32.2
2022-09-06T13:27:43.683Z,31.9
2022-09-06T13:42:17.814Z,32.2
2022-09-06T13:56:48.478Z,32.8
2022-09-06T14:11:11.664Z,31.6
2022-09-06T14:25:40.156Z,32.1
2022-09-06T14:40:07.771Z,31
2022-09-06T14:54:40.271Z,30.9
2022-09-06T15:09:11.795Z,31.2
2022-09-06T15:23:37.126Z,31.3
2022-09-06T15:38:04.297Z,30.7
2022-09-06T15:52:33.218Z,31.5
2022-09-06T16:07:01.289Z,31.4
2022-09-06T16:21:29.137Z,31.2
2022-09-06T16:35:57.471Z,30.7
2022-09-06T16:50:23.847Z,30.3
2022-09-06T17:04:51.071Z,30.4
2022-09-06T17:19:24.730Z,30.2
2022-09-06T17:33:47.331Z,29.6
2022-09-06T17:48:18.150Z,29
2022-09-06T18:02:42.052Z,28.7
2022-09-06T18:17:08.160Z,28.1
2022-09-06T18:31:35.023Z,27.8
2022-09-06T18:46:03.765Z,27.3
2022-09-06T19:00:37.583Z,27
2022-09-06T19:15:07.318Z,26.9
2022-09-06T19:29:30.712Z,26.9
2022-09-06T19:43:56.298Z,26.1
2022-09-06T19:58:24.626Z,26.1
2022-09-06T20:12:55.526Z,25.7
2022-09-06T20:27:25.574Z,25.8
2022-09-06T20:41:47.850Z,25.6
2022-09-06T20:56:16.377Z,25.4
2022-09-06T21:10:44.413Z,25.3
2022-09-06T21:25:11.246Z,24.2
2022-09-06T21:39:37.459Z,23.3
2022-09-06T21:54:05.103Z,23.4
2022-09-06T22:08:33.302Z,22.9
2022-09-06T22:23:01.295Z,22.9
2022-09-06T22:37:29.607Z,22.9
2022-09-06T22:51:57.619Z,22.4
2022-09-06T23:06:26.288Z,22.5
2022-09-06T23:20:53.618Z,22.5
2022-09-06T23:35:21.777Z,22.2
2022-09-06T23:49:55.597Z,22.1
